createdAt,value
2019-02-18T00:02:13.840Z,9.90
2019-02-18T00:04:42.079Z,12.03
2019-02-18T00:07:14.606Z,8.23
2019-02-18T00:09:40.276Z,12.50
2019-02-18T00:12:08.504Z,9.88
2019-02-18T00:14:36.719Z,11.68
2019-02-18T00:17:05.253Z,13.55
2019-02-18T00:19:33.472Z,10.40
2019-02-18T00:22:01.701Z,12.53
2019-02-18T00:24:29.926Z,10.40
2019-02-18T00:26:58.147Z,11.00
2019-02-18T00:29:26.701Z,9.03
2019-02-18T00:31:55.040Z,12.37
2019-02-18T00:34:23.256Z,10.03
2019-02-18T00:36:51.484Z,10.78
2019-02-18T00:39:19.723Z,11.18
2019-02-18T00:41:49.379Z,11.53
2019-02-18T00:44:17.664Z,9.83
2019-02-18T00:46:45.891Z,11.00
2019-02-18T00:49:14.111Z,11.35
2019-02-18T00:51:42.347Z,15.65
2019-02-18T00:54:10.568Z,15.18
2019-02-18T00:56:38.790Z,14.68
2019-02-18T00:59:07.040Z,12.47
2019-02-18T01:01:35.275Z,11.85
2019-02-18T01:04:03.510Z,11.75
2019-02-18T01:06:31.724Z,10.70
2019-02-18T01:09:00.248Z,16.48
2019-02-18T01:11:28.744Z,11.78
2019-02-18T01:13:56.989Z,13.20
2019-02-18T01:16:25.191Z,13.28
2019-02-18T01:18:53.712Z,9.95
2019-02-18T01:21:21.948Z,17.17
2019-02-18T01:23:50.196Z,10.50
2019-02-18T01:26:18.412Z,11.50
2019-02-18T01:28:46.635Z,9.83
2019-02-18T01:31:15.158Z,13.45
2019-02-18T01:33:43.394Z,14.35
2019-02-18T01:36:11.599Z,9.80
2019-02-18T01:38:39.828Z,10.55
2019-02-18T01:41:08.047Z,14.93
2019-02-18T01:43:36.279Z,13.35
2019-02-18T01:46:04.512Z,11.03
2019-02-18T01:48:32.740Z,9.53
2019-02-18T01:51:00.960Z,11.08
2019-02-18T01:53:29.201Z,10.05
2019-02-18T01:55:57.599Z,11.03
2019-02-18T01:58:25.852Z,12.90
2019-02-18T02:00:54.069Z,9.78
2019-02-18T02:03:22.295Z,12.40
2019-02-18T02:05:50.533Z,10.63
2019-02-18T02:08:18.780Z,11.88
2019-02-18T02:10:47.000Z,14.00
2019-02-18T02:13:26.500Z,13.55
2019-02-18T02:15:54.787Z,10.05
2019-02-18T02:18:23.034Z,12.03
2019-02-18T02:20:51.257Z,11.78
2019-02-18T02:23:19.488Z,12.20
2019-02-18T02:25:47.960Z,11.93
2019-02-18T02:28:16.189Z,11.80
2019-02-18T02:30:44.406Z,13.65
2019-02-18T02:33:12.648Z,11.45
2019-02-18T02:35:40.873Z,12.78
2019-02-18T02:38:09.101Z,9.68
2019-02-18T02:40:37.336Z,11.30
2019-02-18T02:43:05.583Z,10.40
2019-02-18T02:45:33.807Z,11.33
2019-02-18T02:48:02.021Z,12.55
2019-02-18T02:50:30.259Z,12.75
2019-02-18T02:52:58.473Z,11.88
2019-02-18T02:55:26.706Z,16.15
2019-02-18T02:57:54.920Z,12.18
2019-02-18T03:00:23.169Z,11.50
2019-02-18T03:02:51.385Z,10.82
2019-02-18T03:05:19.612Z,11.95
2019-02-18T03:07:47.836Z,12.65
2019-02-18T03:10:16.081Z,13.15
2019-02-18T03:12:44.313Z,10.93
2019-02-18T03:15:15.594Z,10.90
2019-02-18T03:17:44.277Z,13.25
2019-02-18T03:20:12.528Z,9.65
2019-02-18T03:22:40.747Z,10.75
2019-02-18T03:25:26.336Z,9.00
2019-02-18T03:28:07.153Z,11.50
2019-02-18T03:30:56.781Z,11.25
2019-02-18T03:33:33.757Z,12.65
2019-02-18T03:36:02.228Z,9.50
2019-02-18T03:38:31.942Z,10.93
2019-02-18T03:41:03.206Z,11.53
2019-02-18T03:43:30.404Z,10.05
2019-02-18T03:45:58.620Z,12.85
2019-02-18T03:48:26.840Z,12.78
2019-02-18T03:50:55.091Z,8.98
2019-02-18T03:53:23.285Z,12.78
2019-02-18T03:55:51.521Z,12.13
2019-02-18T03:58:19.732Z,11.38
2019-02-18T04:00:47.974Z,14.47
2019-02-18T04:03:16.362Z,12.43
2019-02-18T04:05:44.667Z,11.20
2019-02-18T04:08:12.880Z,10.93
2019-02-18T04:10:41.107Z,10.70
2019-02-18T04:13:09.328Z,10.90
2019-02-18T04:15:37.553Z,13.08
2019-02-18T04:18:06.109Z,11.48
2019-02-18T04:20:34.331Z,12.90
2019-02-18T04:23:02.893Z,11.63
2019-02-18T04:25:31.120Z,11.53
2019-02-18T04:27:59.336Z,11.33
2019-02-18T04:30:27.556Z,11.78
2019-02-18T04:32:55.800Z,15.40
2019-02-18T04:35:24.055Z,16.23
2019-02-18T04:37:52.628Z,13.00
2019-02-18T04:40:20.858Z,15.28
2019-02-18T04:42:49.084Z,11.43
2019-02-18T04:45:17.301Z,11.57
2019-02-18T04:47:45.544Z,12.58
2019-02-18T04:50:13.788Z,15.35
2019-02-18T04:52:42.016Z,12.75
2019-02-18T04:55:11.069Z,13.43
2019-02-18T04:57:39.562Z,12.33
2019-02-18T05:00:09.313Z,12.98
2019-02-18T05:02:37.570Z,12.33
2019-02-18T05:05:09.773Z,10.90
2019-02-18T05:07:38.004Z,10.25
2019-02-18T05:10:10.624Z,10.53
2019-02-18T05:12:38.860Z,17.12
2019-02-18T05:15:08.510Z,14.23
2019-02-18T05:17:36.785Z,16.37
2019-02-18T05:20:07.188Z,12.25
2019-02-18T05:22:35.418Z,10.78
2019-02-18T05:25:05.256Z,12.15
2019-02-18T05:27:33.830Z,10.05
2019-02-18T05:30:02.198Z,10.85
2019-02-18T05:32:30.430Z,12.15
2019-02-18T05:34:58.640Z,8.73
2019-02-18T05:37:26.882Z,12.18
2019-02-18T05:39:55.562Z,12.28
2019-02-18T05:42:23.917Z,11.43
2019-02-18T05:44:52.116Z,8.68
2019-02-18T05:47:20.352Z,11.93
2019-02-18T05:49:48.563Z,11.65
2019-02-18T05:52:16.805Z,8.70
2019-02-18T05:54:45.092Z,10.38
2019-02-18T05:57:13.664Z,9.68
2019-02-18T05:59:41.874Z,11.88
2019-02-18T06:02:10.101Z,12.23
2019-02-18T06:04:38.660Z,9.70
2019-02-18T06:07:06.927Z,11.53
2019-02-18T06:09:35.141Z,12.40
2019-02-18T06:12:03.369Z,10.80
2019-02-18T06:14:31.593Z,10.90
2019-02-18T06:16:59.820Z,8.98
2019-02-18T06:19:28.032Z,13.85
2019-02-18T06:21:56.687Z,12.50
2019-02-18T06:24:25.259Z,13.45
2019-02-18T06:26:53.756Z,9.58
2019-02-18T06:29:21.985Z,9.30
2019-02-18T06:31:51.953Z,9.98
2019-02-18T06:34:20.193Z,9.83
2019-02-18T06:36:50.071Z,10.00
2019-02-18T06:39:18.300Z,10.25
2019-02-18T06:41:46.534Z,10.68
2019-02-18T06:44:15.036Z,10.55
2019-02-18T06:46:45.165Z,12.75
2019-02-18T06:49:15.168Z,12.53
2019-02-18T06:51:43.762Z,12.37
2019-02-18T06:54:11.992Z,11.48
2019-02-18T06:56:48.261Z,11.48
2019-02-18T06:59:18.395Z,11.63
2019-02-18T07:01:50.966Z,13.05
2019-02-18T07:04:26.608Z,11.25
2019-02-18T07:07:11.794Z,13.00
2019-02-18T07:09:59.599Z,17.75
2019-02-18T07:12:32.180Z,13.75
2019-02-18T07:15:00.404Z,10.38
2019-02-18T07:17:28.969Z,12.07
2019-02-18T07:19:57.198Z,12.13
2019-02-18T07:22:25.419Z,9.40
2019-02-18T07:24:53.665Z,11.15
2019-02-18T07:27:21.934Z,10.90
2019-02-18T07:29:50.149Z,10.20
2019-02-18T07:32:18.420Z,10.55
2019-02-18T07:34:46.711Z,14.05
2019-02-18T07:37:14.942Z,13.98
2019-02-18T07:39:43.180Z,12.95
2019-02-18T07:42:11.401Z,34.53
2019-02-18T07:44:39.979Z,12.00
2019-02-18T07:47:08.221Z,15.18
2019-02-18T07:49:36.448Z,12.88
2019-02-18T07:52:04.680Z,10.72
2019-02-18T07:54:33.194Z,9.93
2019-02-18T07:57:01.412Z,13.68
2019-02-18T07:59:29.976Z,14.18
2019-02-18T08:01:59.306Z,14.90
2019-02-18T08:04:27.542Z,13.60
2019-02-18T08:06:55.764Z,15.15
2019-02-18T08:09:24.009Z,14.53
2019-02-18T08:11:52.432Z,14.25
2019-02-18T08:14:20.938Z,12.20
2019-02-18T08:16:49.263Z,11.78
2019-02-18T08:19:17.729Z,12.82
2019-02-18T08:21:46.011Z,12.82
2019-02-18T08:24:14.225Z,14.60
2019-02-18T08:26:44.066Z,13.03
2019-02-18T08:29:12.822Z,15.63
2019-02-18T08:31:41.121Z,10.43
2019-02-18T08:34:09.468Z,11.83
2019-02-18T08:36:38.015Z,14.10
2019-02-18T08:39:06.404Z,14.65
2019-02-18T08:41:34.641Z,12.47
2019-02-18T08:44:03.173Z,17.57
2019-02-18T08:46:31.397Z,14.07
2019-02-18T08:48:59.628Z,13.53
2019-02-18T08:51:27.869Z,14.80
2019-02-18T08:53:56.433Z,13.05
2019-02-18T08:56:24.677Z,16.87
2019-02-18T08:58:52.911Z,15.78
2019-02-18T09:01:21.133Z,13.20
2019-02-18T09:03:49.360Z,13.38
2019-02-18T09:06:17.885Z,13.05
2019-02-18T09:08:46.112Z,13.18
2019-02-18T09:11:14.672Z,12.05
2019-02-18T09:13:42.897Z,11.68
2019-02-18T09:16:11.131Z,14.35
2019-02-18T09:18:39.514Z,11.00
2019-02-18T09:21:07.821Z,10.25
2019-02-18T09:23:40.368Z,12.90
2019-02-18T09:26:08.699Z,11.48
2019-02-18T09:28:36.990Z,9.08
2019-02-18T09:31:05.219Z,11.12
2019-02-18T09:33:33.603Z,16.35
2019-02-18T09:36:01.977Z,12.82
2019-02-18T09:38:30.356Z,14.03
2019-02-18T09:40:59.151Z,10.35
2019-02-18T09:43:27.476Z,10.05
2019-02-18T09:45:56.709Z,13.35
2019-02-18T09:48:24.958Z,12.85
2019-02-18T09:50:53.173Z,12.13
2019-02-18T09:53:21.408Z,10.93
2019-02-18T09:55:49.906Z,13.70
2019-02-18T09:58:18.161Z,11.28
2019-02-18T10:00:46.385Z,14.47
2019-02-18T10:03:14.626Z,10.78
2019-02-18T10:05:42.868Z,12.18
2019-02-18T10:08:11.114Z,14.15
2019-02-18T10:10:39.358Z,8.08
2019-02-18T10:13:07.576Z,10.55
2019-02-18T10:15:35.821Z,13.00
2019-02-18T10:18:04.117Z,8.78
2019-02-18T10:20:32.355Z,11.15
2019-02-18T10:23:00.574Z,8.75
2019-02-18T10:25:28.825Z,9.58
2019-02-18T10:27:57.028Z,11.33
2019-02-18T10:30:25.376Z,11.03
2019-02-18T10:32:53.588Z,7.65
2019-02-18T10:35:21.817Z,8.20
2019-02-18T10:37:54.958Z,13.70
2019-02-18T10:40:20.026Z,10.08
2019-02-18T10:42:48.254Z,7.08
2019-02-18T10:45:16.498Z,6.95
2019-02-18T10:47:44.715Z,8.20
2019-02-18T10:50:12.951Z,9.30
2019-02-18T10:52:41.204Z,7.78
2019-02-18T10:55:11.114Z,10.72
2019-02-18T10:57:39.598Z,10.28
2019-02-18T11:00:29.180Z,7.75
2019-02-18T11:02:57.482Z,8.05
2019-02-18T11:05:26.014Z,10.40
2019-02-18T11:07:54.903Z,9.05
2019-02-18T11:10:23.470Z,8.13
2019-02-18T11:12:51.688Z,7.60
2019-02-18T11:15:19.920Z,7.15
2019-02-18T11:17:48.137Z,10.35
2019-02-18T11:20:16.373Z,9.20
2019-02-18T11:22:44.597Z,7.78
2019-02-18T11:25:17.256Z,10.75
2019-02-18T11:27:45.542Z,8.28
2019-02-18T11:30:19.464Z,6.42
2019-02-18T11:32:47.729Z,10.75
2019-02-18T11:35:16.250Z,8.48
2019-02-18T11:37:44.985Z,9.35
2019-02-18T11:40:14.818Z,11.85
2019-02-18T11:42:43.045Z,7.28
2019-02-18T11:45:14.249Z,8.53
2019-02-18T11:47:42.957Z,8.43
2019-02-18T11:50:13.880Z,6.53
2019-02-18T11:52:42.131Z,5.90
2019-02-18T11:55:14.279Z,5.95
2019-02-18T11:57:42.886Z,10.13
2019-02-18T12:00:13.743Z,9.78
2019-02-18T12:02:42.033Z,6.00
2019-02-18T12:05:10.912Z,6.87
2019-02-18T12:07:39.134Z,7.12
2019-02-18T12:10:10.663Z,6.60
2019-02-18T12:12:39.260Z,7.97
2019-02-18T12:15:13.562Z,6.97
2019-02-18T12:17:41.792Z,9.65
2019-02-18T12:20:12.057Z,6.03
2019-02-18T12:22:40.612Z,8.93
2019-02-18T12:25:09.563Z,6.10
2019-02-18T12:27:38.172Z,6.05
2019-02-18T12:30:14.517Z,7.70
2019-02-18T12:32:42.853Z,8.20
2019-02-18T12:35:11.103Z,7.75
2019-02-18T12:37:39.741Z,6.35
2019-02-18T12:40:14.410Z,4.42
2019-02-18T12:42:42.836Z,6.35
2019-02-18T12:45:12.329Z,8.40
2019-02-18T12:47:40.556Z,4.70
2019-02-18T12:50:12.366Z,6.05
2019-02-18T12:52:40.650Z,6.55
2019-02-18T12:55:10.479Z,6.30
2019-02-18T12:57:39.411Z,4.87
2019-02-18T13:00:15.379Z,5.80
2019-02-18T13:02:45.056Z,6.62
2019-02-18T13:05:13.642Z,6.12
2019-02-18T13:07:41.953Z,6.33
2019-02-18T13:10:11.358Z,6.62
2019-02-18T13:12:39.972Z,6.53
2019-02-18T13:15:18.777Z,8.75
2019-02-18T13:17:47.076Z,7.42
2019-02-18T13:20:15.382Z,4.62
2019-02-18T13:22:43.736Z,7.58
2019-02-18T13:25:12.005Z,4.78
2019-02-18T13:27:42.221Z,5.53
2019-02-18T13:30:19.391Z,7.37
2019-02-18T13:32:47.708Z,7.60
2019-02-18T13:35:15.933Z,3.98
2019-02-18T13:37:44.168Z,5.95
2019-02-18T13:40:14.721Z,5.92
2019-02-18T13:42:43.227Z,5.22
2019-02-18T13:45:11.448Z,5.28
2019-02-18T13:47:39.762Z,7.05
2019-02-18T13:50:10.420Z,3.67
2019-02-18T13:52:38.668Z,4.80
2019-02-18T13:55:09.560Z,6.20
2019-02-18T13:57:38.486Z,4.35
2019-02-18T14:00:22.103Z,5.15
2019-02-18T14:02:50.607Z,4.78
2019-02-18T14:05:20.546Z,6.90
2019-02-18T14:07:48.773Z,6.85
2019-02-18T14:10:17.500Z,4.47
2019-02-18T14:12:45.732Z,3.90
2019-02-18T14:15:14.476Z,4.92
2019-02-18T14:17:42.742Z,5.20
2019-02-18T14:20:15.082Z,4.03
2019-02-18T14:22:43.595Z,6.42
2019-02-18T14:25:12.200Z,7.42
2019-02-18T14:27:40.437Z,7.35
2019-02-18T14:30:16.882Z,5.58
2019-02-18T14:32:45.279Z,5.25
2019-02-18T14:35:14.915Z,7.50
2019-02-18T14:37:43.152Z,6.10
2019-02-18T14:40:13.294Z,6.12
2019-02-18T14:42:41.603Z,6.00
2019-02-18T14:45:09.994Z,6.55
2019-02-18T14:47:38.318Z,6.53
2019-02-18T14:50:08.645Z,8.33
2019-02-18T14:52:36.957Z,9.73
2019-02-18T14:55:08.318Z,7.30
2019-02-18T15:00:19.881Z,7.10
2019-02-18T15:02:50.637Z,7.08
2019-02-18T15:05:18.965Z,7.58
2019-02-18T15:07:47.213Z,6.42
2019-02-18T15:10:16.065Z,6.22
2019-02-18T15:12:44.949Z,6.60
2019-02-18T15:15:13.410Z,8.53
2019-02-18T15:17:44.784Z,6.85
2019-02-18T15:20:13.013Z,6.87
2019-02-18T15:22:46.482Z,5.50
2019-02-18T15:25:14.743Z,5.30
2019-02-18T15:27:42.998Z,7.40
2019-02-18T15:30:13.948Z,9.50
2019-02-18T15:32:42.191Z,8.78
2019-02-18T15:35:10.778Z,6.87
2019-02-18T15:37:39.008Z,7.12
2019-02-18T15:40:10.406Z,7.47
2019-02-18T15:42:42.122Z,8.65
2019-02-18T15:45:09.145Z,6.47
2019-02-18T15:47:37.393Z,7.30
2019-02-18T15:50:08.956Z,9.25
2019-02-18T15:52:37.201Z,7.30
2019-02-18T15:55:05.788Z,8.70
2019-02-18T15:57:34.032Z,8.28
2019-02-18T16:00:02.252Z,8.08
2019-02-18T16:02:30.549Z,12.98
2019-02-18T16:04:58.767Z,9.13
2019-02-18T16:07:27.180Z,9.53
2019-02-18T16:09:55.409Z,10.40
2019-02-18T16:12:23.650Z,13.50
2019-02-18T16:14:52.211Z,9.93
2019-02-18T16:17:20.461Z,12.05
2019-02-18T16:19:49.554Z,11.78
2019-02-18T16:22:18.400Z,13.08
2019-02-18T16:24:47.220Z,9.70
2019-02-18T16:27:15.464Z,12.13
2019-02-18T16:29:43.702Z,9.20
2019-02-18T16:32:11.937Z,10.95
2019-02-18T16:34:40.163Z,13.38
2019-02-18T16:37:08.885Z,9.48
2019-02-18T16:39:37.108Z,11.05
2019-02-18T16:42:05.841Z,12.60
2019-02-18T16:44:34.350Z,9.18
2019-02-18T16:47:02.580Z,10.18
2019-02-18T16:49:30.812Z,9.88
2019-02-18T16:51:59.059Z,21.07
2019-02-18T16:54:27.761Z,22.17
2019-02-18T16:56:56.064Z,11.43
2019-02-18T16:59:24.288Z,13.03
2019-02-18T17:01:52.540Z,12.03
2019-02-18T17:04:20.783Z,11.97
2019-02-18T17:06:49.037Z,11.35
2019-02-18T17:09:17.633Z,10.32
2019-02-18T17:11:45.932Z,9.50
2019-02-18T17:14:14.171Z,13.00
2019-02-18T17:16:42.404Z,9.35
2019-02-18T17:19:10.637Z,11.10
2019-02-18T17:21:39.194Z,14.38
2019-02-18T17:24:07.694Z,9.35
2019-02-18T17:26:36.285Z,9.50
2019-02-18T17:29:04.534Z,10.58
2019-02-18T17:31:33.072Z,10.03
2019-02-18T17:34:01.313Z,10.53
2019-02-18T17:36:29.528Z,8.48
2019-02-18T17:38:57.811Z,10.35
2019-02-18T17:41:26.096Z,11.25
2019-02-18T17:43:54.524Z,9.78
2019-02-18T17:46:22.744Z,9.30
2019-02-18T17:48:51.012Z,12.50
2019-02-18T17:51:19.231Z,9.45
2019-02-18T17:53:47.802Z,9.58
2019-02-18T17:56:16.024Z,12.70
2019-02-18T17:58:44.286Z,9.55
2019-02-18T18:01:12.500Z,13.53
2019-02-18T18:03:40.764Z,10.88
2019-02-18T18:06:08.980Z,9.38
2019-02-18T18:08:37.245Z,8.00
2019-02-18T18:11:05.469Z,8.38
2019-02-18T18:13:33.800Z,9.18
2019-02-18T18:16:02.428Z,9.80
2019-02-18T18:18:30.743Z,8.95
2019-02-18T18:20:59.076Z,10.63
2019-02-18T18:23:27.327Z,10.05
2019-02-18T18:25:55.615Z,13.22
2019-02-18T18:28:23.864Z,13.78
2019-02-18T18:30:52.083Z,10.30
2019-02-18T18:33:20.342Z,9.93
2019-02-18T18:35:48.897Z,11.25
2019-02-18T18:38:17.909Z,19.30
2019-02-18T18:40:46.134Z,27.80
2019-02-18T18:43:14.385Z,19.32
2019-02-18T18:45:42.611Z,15.88
2019-02-18T18:48:11.133Z,12.58
2019-02-18T18:50:39.437Z,11.03
2019-02-18T18:53:07.664Z,14.60
2019-02-18T18:55:36.021Z,11.65
2019-02-18T18:58:04.316Z,14.73
2019-02-18T19:00:32.805Z,14.47
2019-02-18T19:03:01.429Z,14.03
2019-02-18T19:05:29.651Z,14.55
2019-02-18T19:07:57.876Z,11.70
2019-02-18T19:10:26.126Z,11.40
2019-02-18T19:12:54.362Z,13.45
2019-02-18T19:15:24.395Z,13.13
2019-02-18T19:17:53.085Z,21.12
2019-02-18T19:20:21.393Z,17.87
2019-02-18T19:22:49.626Z,12.18
2019-02-18T19:25:17.871Z,15.03
2019-02-18T19:27:46.199Z,19.60
2019-02-18T19:30:35.571Z,18.87
2019-02-18T19:33:03.866Z,14.65
2019-02-18T19:35:32.297Z,16.95
2019-02-18T19:38:00.587Z,15.28
2019-02-18T19:40:28.898Z,15.65
2019-02-18T19:42:57.116Z,15.63
2019-02-18T19:45:25.847Z,14.55
2019-02-18T19:47:54.134Z,17.20
2019-02-18T19:50:22.829Z,21.42
2019-02-18T19:52:52.810Z,15.38
2019-02-18T19:55:21.116Z,12.35
2019-02-18T19:57:50.066Z,15.63
2019-02-18T20:00:19.964Z,13.25
2019-02-18T20:02:49.331Z,15.68
2019-02-18T20:05:17.928Z,12.85
2019-02-18T20:07:46.149Z,15.55
2019-02-18T20:10:14.423Z,14.73
2019-02-18T20:12:43.003Z,16.15
2019-02-18T20:15:15.515Z,13.20
2019-02-18T20:17:43.763Z,14.03
2019-02-18T20:20:16.400Z,12.80
2019-02-18T20:22:44.619Z,13.18
2019-02-18T20:25:12.869Z,15.20
2019-02-18T20:27:41.090Z,15.45
2019-02-18T20:30:14.194Z,10.88
2019-02-18T20:32:42.716Z,9.73
2019-02-18T20:35:11.228Z,9.38
2019-02-18T20:37:39.452Z,8.45
2019-02-18T20:40:10.077Z,12.50
2019-02-18T20:45:10.795Z,10.60
2019-02-18T20:47:39.039Z,10.58
2019-02-18T20:50:09.824Z,12.35
2019-02-18T20:52:39.865Z,10.08
2019-02-18T20:55:11.303Z,12.20
2019-02-18T20:57:39.537Z,13.53
2019-02-18T21:00:17.869Z,11.25
2019-02-18T21:02:46.686Z,15.50
2019-02-18T21:05:15.588Z,11.93
2019-02-18T21:07:43.954Z,14.35
2019-02-18T21:10:17.993Z,11.18
2019-02-18T21:12:46.216Z,10.38
2019-02-18T21:15:14.485Z,12.78
2019-02-18T21:17:43.105Z,13.85
2019-02-18T21:20:14.664Z,12.33
2019-02-18T21:22:45.518Z,15.28
2019-02-18T21:25:13.852Z,12.70
2019-02-18T21:27:42.576Z,13.58
2019-02-18T21:30:12.985Z,13.22
2019-02-18T21:32:41.313Z,14.23
2019-02-18T21:35:09.554Z,15.38
2019-02-18T21:37:37.858Z,15.70
2019-02-18T21:40:08.763Z,14.68
2019-02-18T21:42:37.055Z,13.25
2019-02-18T21:45:08.247Z,16.93
2019-02-18T21:47:36.448Z,15.00
2019-02-18T21:50:06.428Z,12.33
2019-02-18T21:52:34.717Z,11.65
2019-02-18T21:55:03.280Z,12.10
2019-02-18T21:57:31.593Z,17.07
2019-02-18T21:59:59.817Z,12.10
2019-02-18T22:02:28.048Z,13.25
2019-02-18T22:04:56.346Z,17.65
2019-02-18T22:07:24.669Z,11.35
2019-02-18T22:09:53.277Z,13.68
2019-02-18T22:12:21.512Z,13.28
2019-02-18T22:14:49.768Z,15.00
2019-02-18T22:17:18.054Z,13.35
2019-02-18T22:19:46.320Z,15.60
2019-02-18T22:22:14.560Z,13.65
2019-02-18T22:24:42.809Z,12.98
2019-02-18T22:27:11.500Z,15.38
2019-02-18T22:29:39.727Z,10.93
2019-02-18T22:32:07.976Z,15.80
2019-02-18T22:34:36.201Z,15.05
2019-02-18T22:37:04.719Z,12.47
2019-02-18T22:39:32.939Z,14.28
2019-02-18T22:42:01.205Z,15.72
2019-02-18T22:44:29.816Z,14.28
2019-02-18T22:46:58.044Z,13.98
2019-02-18T22:49:26.299Z,13.43
2019-02-18T22:51:54.542Z,12.85
2019-02-18T22:54:22.768Z,13.93
2019-02-18T22:56:50.992Z,15.10
2019-02-18T22:59:19.216Z,12.15
2019-02-18T23:01:47.825Z,13.58
2019-02-18T23:04:16.045Z,14.50
2019-02-18T23:06:44.597Z,13.80
2019-02-18T23:09:14.579Z,14.35
2019-02-18T23:11:42.812Z,14.25
2019-02-18T23:14:11.029Z,13.53
2019-02-18T23:16:39.272Z,13.30
2019-02-18T23:19:07.777Z,13.68
2019-02-18T23:21:36.028Z,13.05
2019-02-18T23:24:04.257Z,11.40
2019-02-18T23:26:32.728Z,13.88
2019-02-18T23:29:00.943Z,15.23
2019-02-18T23:31:29.172Z,14.70
2019-02-18T23:33:57.702Z,10.95
2019-02-18T23:36:25.938Z,14.00
2019-02-18T23:38:54.228Z,12.55
2019-02-18T23:41:22.459Z,10.82
2019-02-18T23:43:50.676Z,13.83
2019-02-18T23:46:19.253Z,14.23
2019-02-18T23:48:47.468Z,11.48
2019-02-18T23:51:16.029Z,12.18
2019-02-18T23:53:44.247Z,12.20
2019-02-18T23:56:12.912Z,17.55
2019-02-18T23:58:41.132Z,10.38
